»·PEaware :: DAL1180 KONT-KLAS

DAL1180 :: KONT-KLAS

FLIGHT INFORMATION

Flight Status: Arrived
Operator:
Delta Air Lines
More flights by this operator :: More flights under this callsign
Pilot: Chris C. (10181)
Aircraft: MCDONNELL-DOUGLAS MD-88
(MD88)
More flights by this aircraft type
Origin: KONT Ontario Intl
United States
Destination: KLAS McCarran Intl
United States
More flights between these airports :: More routes between these airports
Route: SNSHN4 MISEN KEPEC6
File this flight plan on PilotEdge
Remarks: Happy Monday!
Altitude:
(Current/Filed)
27,000ft
Speed:
(Current/Filed)
440kts
Departed: 23-Mar-20 09:29 PM
Arrived: 23-Mar-20 10:12 PM
Distance/Time
Traveled:
171nm/0:43
Distance/Time
To Go:
Arrived

Flight Plot

Page will automatically refresh every two minutes.

Flight plan parsing failed; only flown route is shown


Map Options




Map Legend


Flown Route
Filed Route
Departure Airport
Arrival Airport
Navaid (VOR, NDB)
Fix

Horizontal Profiles

Position Reports

Time Latitude Longitude Heading Altitude Ground
Speed
23-Mar-20 21:07 34.059760 -117.586263 0 941ft 0kts
23-Mar-20 21:08 34.059760 -117.586263 0 941ft 0kts
23-Mar-20 21:09 34.059760 -117.586263 0 940ft 0kts
23-Mar-20 21:10 34.059759 -117.586263 0 940ft 0kts
23-Mar-20 21:11 34.059760 -117.586263 0 940ft 0kts
23-Mar-20 21:12 34.059760 -117.586263 0 940ft 0kts
23-Mar-20 21:13 34.059760 -117.586263 0 940ft 0kts
23-Mar-20 21:14 34.059759 -117.586263 0 940ft 0kts
23-Mar-20 21:15 34.059759 -117.586263 0 940ft 0kts
23-Mar-20 21:16 34.059759 -117.586263 0 940ft 0kts
23-Mar-20 21:17 34.059759 -117.586263 0 940ft 0kts
23-Mar-20 21:18 34.059759 -117.586263 0 940ft 0kts
23-Mar-20 21:19 34.059759 -117.586263 0 940ft 0kts
23-Mar-20 21:20 34.059322 -117.586306 22 939ft 2kts
23-Mar-20 21:21 34.059014 -117.586813 88 938ft 0kts
23-Mar-20 21:22 34.059016 -117.586887 90 938ft 0kts
23-Mar-20 21:23 34.059016 -117.586887 90 938ft 0kts
23-Mar-20 21:24 34.059012 -117.586561 90 938ft 7kts
23-Mar-20 21:25 34.058789 -117.582589 146 939ft 7kts
23-Mar-20 21:26 34.058128 -117.582508 178 937ft 0kts
23-Mar-20 21:27 34.056895 -117.583432 268 934ft 9kts
23-Mar-20 21:28 34.056736 -117.619372 267 1748ft 162kts
23-Mar-20 21:29 34.055642 -117.680841 274 3951ft 201kts
23-Mar-20 21:30 34.068279 -117.757053 281 5693ft 270kts
23-Mar-20 21:31 34.110384 -117.833063 315 8637ft 274kts
23-Mar-20 21:32 34.169104 -117.893311 317 11451ft 283kts
23-Mar-20 21:33 34.232541 -117.958509 318 13573ft 323kts
23-Mar-20 21:34 34.321237 -117.952318 31 15741ft 375kts
23-Mar-20 21:35 34.380539 -117.871310 77 17575ft 401kts
23-Mar-20 21:36 34.384416 -117.733918 86 19586ft 416kts
23-Mar-20 21:37 34.397589 -117.591569 68 21342ft 431kts
23-Mar-20 21:38 34.468294 -117.473180 50 22926ft 440kts
23-Mar-20 21:39 34.542521 -117.350871 50 24336ft 455kts
23-Mar-20 21:40 34.619096 -117.224005 50 25445ft 472kts
23-Mar-20 21:41 34.698568 -117.092541 50 26503ft 487kts
23-Mar-20 21:42 34.780107 -116.957886 49 27185ft 496kts
23-Mar-20 21:43 34.862796 -116.821597 49 27167ft 503kts
23-Mar-20 21:44 34.947095 -116.680501 52 27154ft 513kts
23-Mar-20 21:45 35.027187 -116.537600 51 26785ft 503kts
23-Mar-20 21:46 35.107651 -116.399498 46 24183ft 484kts
23-Mar-20 21:47 35.197501 -116.284143 42 22393ft 448kts
23-Mar-20 21:48 35.281221 -116.178201 42 20713ft 420kts
23-Mar-20 21:49 35.360164 -116.078253 42 19149ft 394kts
23-Mar-20 21:50 35.434652 -115.984029 42 17692ft 372kts
23-Mar-20 21:51 35.505228 -115.894867 42 16307ft 353kts
23-Mar-20 21:52 35.572508 -115.809925 43 14980ft 336kts
23-Mar-20 21:53 35.635853 -115.730019 43 13753ft 326kts
23-Mar-20 21:54 35.698412 -115.650791 44 13001ft 316kts
23-Mar-20 21:56 35.763076 -115.575930 20 12997ft 312kts
23-Mar-20 21:57 35.848850 -115.569259 357 13057ft 311kts
23-Mar-20 21:58 35.935839 -115.565370 359 13022ft 312kts
23-Mar-20 21:59 35.996373 -115.502263 76 12425ft 306kts
23-Mar-20 22:00 36.022538 -115.404357 69 11313ft 291kts
23-Mar-20 22:01 36.027687 -115.310107 98 10454ft 275kts
23-Mar-20 22:02 36.019726 -115.215726 97 9163ft 270kts
23-Mar-20 22:03 36.013548 -115.127818 97 8360ft 246kts
23-Mar-20 22:04 36.008083 -115.043970 95 8001ft 242kts
23-Mar-20 22:05 36.005463 -114.959160 94 6527ft 247kts
23-Mar-20 22:06 36.018079 -114.882676 22 5499ft 233kts
23-Mar-20 22:07 36.080749 -114.884547 312 5491ft 226kts
23-Mar-20 22:08 36.081171 -114.950864 253 5111ft 185kts
23-Mar-20 22:09 36.073334 -115.009881 269 4108ft 157kts
23-Mar-20 22:10 36.073735 -115.061876 265 2863ft 144kts
23-Mar-20 22:11 36.073645 -115.111796 268 2277ft 142kts
23-Mar-20 22:12 36.074324 -115.145062 298 2100ft 25kts

Navigation Log

Ident Type
Flight plan parsing failed, navigation log unavailable